メインページ
METAR-TAF:

METAR-TAF

空港 :

高松空港

高松, 日本

緯度: 34-13N, 経度: 134-01E, 海抜: 185m

現時点の気象観測

当レポートは57分前の08:00(UTC)に作成
南東の風 2kt
気温 6°C
湿度 61%
気圧 1029 hPa
視程10km以上
高度2500ftの雲はほとんどない

METAR: RJOT 100800Z 13002KT 9999 FEW025 06/M01 Q1029

時間: 17:57 (08:57 UTC)

予報

当レポートは3時間49分前の05:08(UTC)に作成
予報は10日の 06時(UTC)から 11日の 12時(UTC)まで有効
南/南東の風 5kt
視程10km以上
高度2000ftの雲はほとんどない
高度4000ftの雲は散在している
11日の 09時(UTC)から 11日の 12時(UTC)まで一時的に
視程: 4000m
高度200ftの雲はほとんどない
高度800ftの千切れ雲あり
高度1500ftの千切れ雲あり
小雨, 靄

TAF: RJOT 100508Z 1006/1112 15005KT 9999 FEW020 SCT040 TEMPO 1109/1112 4000 -RA BR FEW002 BKN008 BKN015

4,000以上の空港の気象観測と天気予報(METAR報とTAF報)

利用可能な観測所は地図上に黄色い丸と赤い丸で示す。

丸の上にカーソルを重ねると観測所名を参照できる。

次にクリックすると気象観測と天気予報を参照できる。

マップの切り替え:黒色「×」印の緑ボタンをクリックして拡大、「-」印の緑ボタンをクリックして縮小、緑色の三角印をクリックして隣りの地図に切り替え


METAR-TAF: